createdAt,value
2018-07-14T00:00:26.151Z,67.70
2018-07-14T00:02:54.070Z,67.30
2018-07-14T00:05:22.027Z,67.40
2018-07-14T00:07:49.951Z,67.90
2018-07-14T00:10:17.929Z,68.00
2018-07-14T00:12:45.931Z,67.80
2018-07-14T00:15:13.891Z,67.40
2018-07-14T00:17:41.863Z,78.90
2018-07-14T00:20:09.822Z,77.90
2018-07-14T00:22:37.773Z,66.70
2018-07-14T00:25:05.867Z,81.90
2018-07-14T00:27:33.816Z,72.10
2018-07-14T00:30:01.828Z,72.90
2018-07-14T00:32:29.827Z,74.00
2018-07-14T00:34:57.848Z,75.20
2018-07-14T00:37:25.784Z,75.90
2018-07-14T00:39:53.816Z,77.10
2018-07-14T00:44:49.707Z,81.70
2018-07-14T00:47:17.688Z,92.50
2018-07-14T00:49:45.640Z,92.90
2018-07-14T00:52:13.587Z,85.90
2018-07-14T00:54:41.535Z,86.70
2018-07-14T00:57:09.493Z,88.00
2018-07-14T01:02:05.635Z,90.40
2018-07-14T01:07:01.514Z,91.00
2018-07-14T01:09:29.461Z,91.50
2018-07-14T01:11:57.487Z,91.30
2018-07-14T01:14:25.484Z,91.90
2018-07-14T01:16:53.418Z,91.80
2018-07-14T01:19:21.371Z,96.80
2018-07-14T01:21:49.335Z,92.00
2018-07-14T01:24:17.420Z,91.60
2018-07-14T01:26:45.341Z,91.50
2018-07-14T01:29:14.369Z,91.60
2018-07-14T01:31:42.675Z,91.40
2018-07-14T01:36:38.712Z,91.30
2018-07-14T01:41:35.487Z,91.30
2018-07-14T01:44:03.435Z,91.50
2018-07-14T01:48:59.521Z,91.60
2018-07-14T01:51:27.490Z,91.80
2018-07-14T01:53:55.432Z,97.70
2018-07-14T01:58:51.309Z,93.70
2018-07-14T02:01:19.308Z,91.30
2018-07-14T02:06:15.187Z,91.50
2018-07-14T02:08:43.132Z,92.40
2018-07-14T02:13:39.004Z,91.40
2018-07-14T02:16:07.257Z,91.70
2018-07-14T02:18:35.301Z,91.50
2018-07-14T02:25:59.175Z,93.60
2018-07-14T02:28:27.122Z,94.10
2018-07-14T02:30:55.061Z,94.70
2018-07-14T02:33:23.071Z,95.60
2018-07-14T02:35:50.994Z,95.20
2018-07-14T02:38:18.913Z,95.00
2018-07-14T02:40:46.888Z,94.50
2018-07-14T02:43:14.845Z,99.40
2018-07-14T02:45:42.830Z,99.90
2018-07-14T02:48:10.796Z,95.00
2018-07-14T02:50:38.716Z,95.60
2018-07-14T02:53:06.721Z,95.70
2018-07-14T02:55:34.638Z,95.80
2018-07-14T02:58:02.656Z,95.50
2018-07-14T03:00:30.576Z,95.40
2018-07-14T03:02:58.511Z,95.60
2018-07-14T03:10:22.407Z,95.00
2018-07-14T03:12:50.524Z,94.70
2018-07-14T03:17:46.425Z,95.40
2018-07-14T03:20:14.334Z,96.20
2018-07-14T03:22:42.316Z,95.70
2018-07-14T03:25:10.265Z,95.60
2018-07-14T03:27:38.241Z,96.10
2018-07-14T03:30:06.333Z,96.50
2018-07-14T03:32:34.258Z,96.00
2018-07-14T03:35:02.220Z,96.40
2018-07-14T03:37:30.180Z,96.50
2018-07-14T03:39:58.188Z,96.70
2018-07-14T03:42:26.160Z,96.40
2018-07-14T03:44:54.197Z,97.10
2018-07-14T03:47:22.134Z,96.60
2018-07-14T03:49:50.073Z,96.80
2018-07-14T03:52:18.104Z,96.80
2018-07-14T03:54:46.028Z,97.20
2018-07-14T03:57:13.997Z,96.90
2018-07-14T03:59:41.945Z,96.60
2018-07-14T04:02:09.904Z,96.70
2018-07-14T04:04:37.815Z,97.10
2018-07-14T04:07:05.737Z,97.10
2018-07-14T04:09:33.739Z,97.30
2018-07-14T04:12:01.688Z,96.80
2018-07-14T04:14:29.659Z,96.50
2018-07-14T04:16:57.585Z,96.60
2018-07-14T04:19:25.564Z,96.30
2018-07-14T04:21:53.501Z,96.30
2018-07-14T04:26:49.385Z,95.40
2018-07-14T04:29:17.302Z,99.90
2018-07-14T04:36:41.118Z,95.00
2018-07-14T04:39:09.076Z,95.10
2018-07-14T04:41:37.004Z,95.20
2018-07-14T04:44:04.954Z,94.90
2018-07-14T04:46:32.929Z,94.60
2018-07-14T04:49:01.089Z,94.20
2018-07-14T04:51:29.037Z,94.60
2018-07-14T04:53:57.004Z,94.40
2018-07-14T04:56:24.952Z,93.70
2018-07-14T05:01:20.848Z,94.00
2018-07-14T05:03:48.818Z,93.90
2018-07-14T05:06:16.817Z,93.20
2018-07-14T05:11:12.698Z,93.80
2018-07-14T05:13:40.661Z,93.70
2018-07-14T05:16:08.591Z,93.70
2018-07-14T05:21:04.598Z,93.80
2018-07-14T05:23:32.581Z,94.30
2018-07-14T05:26:00.559Z,98.90
2018-07-14T05:33:24.417Z,92.80
2018-07-14T05:35:52.370Z,92.70
2018-07-14T05:38:20.300Z,92.20
2018-07-14T05:40:48.458Z,93.10
2018-07-14T05:45:44.349Z,92.70
2018-07-14T05:48:12.334Z,92.30
2018-07-14T05:50:40.262Z,92.10
2018-07-14T05:53:08.205Z,91.80
2018-07-14T05:55:36.189Z,91.40
2018-07-14T05:58:04.244Z,91.40
2018-07-14T06:03:00.145Z,91.10
2018-07-14T06:05:28.090Z,91.10
2018-07-14T06:07:56.026Z,90.70
2018-07-14T06:12:51.910Z,92.50
2018-07-14T06:15:19.857Z,89.90
2018-07-14T06:17:47.857Z,88.00
2018-07-14T06:20:15.781Z,86.50
2018-07-14T06:22:43.694Z,84.80
2018-07-14T06:25:11.695Z,84.40
2018-07-14T06:30:08.227Z,82.10
2018-07-14T06:32:36.163Z,81.80
2018-07-14T06:35:04.250Z,80.60
2018-07-14T06:37:32.230Z,90.20
2018-07-14T06:42:28.165Z,78.40
2018-07-14T06:47:24.117Z,84.50
2018-07-14T06:52:19.996Z,78.10
2018-07-14T06:54:47.997Z,78.60
2018-07-14T06:57:15.958Z,80.30
2018-07-14T06:59:43.911Z,79.70
2018-07-14T07:02:11.958Z,90.60
2018-07-14T07:04:39.924Z,80.10
2018-07-14T07:07:07.988Z,80.00
2018-07-14T07:09:35.995Z,79.10
2018-07-14T07:12:03.976Z,78.90
2018-07-14T07:14:31.935Z,89.70
2018-07-14T07:16:59.924Z,90.20
2018-07-14T07:19:29.295Z,89.40
2018-07-14T07:21:59.210Z,78.20
2018-07-14T07:24:32.172Z,78.20
2018-07-14T07:27:01.514Z,77.60
2018-07-14T07:31:59.446Z,77.70
2018-07-14T07:36:57.727Z,81.50
2018-07-14T07:39:27.481Z,81.30
2018-07-14T07:41:55.591Z,81.50
2018-07-14T07:46:51.499Z,82.90
2018-07-14T07:49:19.430Z,82.90
2018-07-14T07:51:47.411Z,82.50
2018-07-14T07:54:16.377Z,81.10
2018-07-14T07:56:45.273Z,82.80
2018-07-14T07:59:13.286Z,83.70
2018-07-14T08:01:41.402Z,82.60
2018-07-14T08:04:09.393Z,82.00
2018-07-14T08:06:37.336Z,81.50
2018-07-14T08:09:06.095Z,82.10
2018-07-14T08:11:34.011Z,81.30
2018-07-14T08:14:02.043Z,79.50
2018-07-14T08:19:00.153Z,81.30
2018-07-14T08:21:28.128Z,79.60
2018-07-14T08:23:56.074Z,79.50
2018-07-14T08:31:20.925Z,74.80
2018-07-14T08:33:48.952Z,74.80
2018-07-14T08:38:44.852Z,73.90
2018-07-14T08:43:41.019Z,72.40
2018-07-14T08:46:09.151Z,72.80
2018-07-14T08:48:37.148Z,70.50
2018-07-14T08:51:05.374Z,71.00
2018-07-14T08:56:01.346Z,71.10
2018-07-14T08:58:29.484Z,71.50
2018-07-14T09:00:59.158Z,83.60
2018-07-14T09:08:23.958Z,72.00
2018-07-14T09:10:51.972Z,71.90
2018-07-14T09:15:47.922Z,76.00
2018-07-14T09:18:15.888Z,80.60
2018-07-14T09:20:44.075Z,70.00
2018-07-14T09:23:12.100Z,69.90
2018-07-14T09:28:08.018Z,68.10
2018-07-14T09:30:36.013Z,67.80
2018-07-14T09:35:31.925Z,67.30
2018-07-14T09:37:59.935Z,67.10
2018-07-14T09:40:27.820Z,66.70
2018-07-14T09:42:55.846Z,66.40
2018-07-14T09:47:51.794Z,65.10
2018-07-14T09:50:19.716Z,65.40
2018-07-14T09:52:47.707Z,64.30
2018-07-14T09:55:15.785Z,64.80
2018-07-14T09:57:43.716Z,64.00
2018-07-14T10:00:29.862Z,75.60
2018-07-14T10:05:25.706Z,64.00
2018-07-14T10:07:53.745Z,63.30
2018-07-14T10:10:21.741Z,63.50
2018-07-14T10:15:17.614Z,64.00
2018-07-14T10:17:45.602Z,63.30
2018-07-14T10:20:13.524Z,63.30
2018-07-14T10:22:41.456Z,64.90
2018-07-14T10:27:37.428Z,61.70
2018-07-14T10:30:05.361Z,61.30
2018-07-14T10:37:29.235Z,62.00
2018-07-14T10:39:57.156Z,60.80
2018-07-14T10:42:25.162Z,61.40
2018-07-14T10:44:53.061Z,61.80
2018-07-14T10:47:21.034Z,61.20
2018-07-14T10:52:17.100Z,61.30
2018-07-14T10:54:45.021Z,61.70
2018-07-14T10:57:14.680Z,62.50
2018-07-14T11:02:11.938Z,63.10
2018-07-14T11:04:39.865Z,64.50
2018-07-14T11:07:07.804Z,64.00
2018-07-14T11:09:35.825Z,64.50
2018-07-14T11:16:59.669Z,61.30
2018-07-14T11:19:27.619Z,59.80
2018-07-14T11:21:55.593Z,60.30
2018-07-14T11:24:23.521Z,59.50
2018-07-14T11:26:51.623Z,58.10
2018-07-14T11:29:19.567Z,58.80
2018-07-14T11:36:43.419Z,57.10
2018-07-14T11:39:11.419Z,53.70
2018-07-14T11:41:39.389Z,54.10
2018-07-14T11:44:07.366Z,53.00
2018-07-14T11:46:35.343Z,52.30
2018-07-14T11:51:31.288Z,49.90
2018-07-14T11:56:27.205Z,50.00
2018-07-14T11:58:55.130Z,49.00
2018-07-14T12:01:23.132Z,46.90
2018-07-14T12:03:51.094Z,48.70
2018-07-14T12:06:19.083Z,58.50
2018-07-14T12:11:14.991Z,52.00
2018-07-14T12:13:42.937Z,47.00
2018-07-14T12:16:10.937Z,48.10
2018-07-14T12:18:38.917Z,49.30
2018-07-14T12:23:34.821Z,48.60
2018-07-14T12:26:02.789Z,50.40
2018-07-14T12:28:30.966Z,48.00
2018-07-14T12:30:59.034Z,45.90
2018-07-14T12:33:27.170Z,42.80
2018-07-14T12:35:55.157Z,42.00
2018-07-14T12:40:52.012Z,45.00
2018-07-14T12:43:20.011Z,41.20
2018-07-14T12:48:15.937Z,42.20
2018-07-14T12:50:43.936Z,42.40
2018-07-14T12:55:39.883Z,42.20
2018-07-14T13:00:35.802Z,41.30
2018-07-14T13:03:03.757Z,42.20
2018-07-14T13:05:31.727Z,41.50
2018-07-14T13:07:59.714Z,50.70
2018-07-14T13:12:55.605Z,41.50
2018-07-14T13:15:23.565Z,51.10
2018-07-14T13:17:51.485Z,41.60
2018-07-14T13:20:19.461Z,41.10
2018-07-14T13:25:15.509Z,40.90
2018-07-14T13:30:11.481Z,42.00
2018-07-14T13:35:07.462Z,41.30
2018-07-14T13:37:35.429Z,40.30
2018-07-14T13:40:03.473Z,40.70
2018-07-14T13:42:31.429Z,40.40
2018-07-14T13:44:59.428Z,40.50
2018-07-14T13:47:27.379Z,41.60
2018-07-14T13:49:55.434Z,42.60
2018-07-14T13:52:23.386Z,51.00
2018-07-14T13:54:51.356Z,41.00
2018-07-14T13:57:19.286Z,40.00
2018-07-14T14:09:39.126Z,36.70
2018-07-14T14:14:35.321Z,37.70
2018-07-14T14:17:03.349Z,38.30
2018-07-14T14:21:59.264Z,43.40
2018-07-14T14:24:27.239Z,46.40
2018-07-14T14:29:23.119Z,46.70
2018-07-14T14:31:51.066Z,45.50
2018-07-14T14:34:19.058Z,43.60
2018-07-14T14:36:47.011Z,39.50
2018-07-14T14:39:14.978Z,38.50
2018-07-14T14:41:42.932Z,38.50
2018-07-14T14:44:10.904Z,39.50
2018-07-14T14:46:38.888Z,38.30
2018-07-14T14:49:06.863Z,37.80
2018-07-14T14:51:34.818Z,37.70
2018-07-14T14:54:02.783Z,36.60
2018-07-14T14:56:30.714Z,37.00
2018-07-14T15:01:26.638Z,38.40
2018-07-14T15:03:54.642Z,39.60
2018-07-14T15:06:22.575Z,40.60
2018-07-14T15:08:50.546Z,40.70
2018-07-14T15:11:18.509Z,39.90
2018-07-14T15:13:46.480Z,38.80
2018-07-14T15:16:14.424Z,39.40
2018-07-14T15:18:42.379Z,36.80
2018-07-14T15:21:10.373Z,36.60
2018-07-14T15:23:38.378Z,38.30
2018-07-14T15:28:34.281Z,37.50
2018-07-14T15:31:02.258Z,38.60
2018-07-14T15:33:30.223Z,38.20
2018-07-14T15:35:58.145Z,38.20
2018-07-14T15:38:26.118Z,36.90
2018-07-14T15:40:54.057Z,36.90
2018-07-14T15:45:50.033Z,38.20
2018-07-14T15:48:17.992Z,47.20
2018-07-14T15:50:45.934Z,38.00
2018-07-14T15:53:13.902Z,38.30
2018-07-14T15:55:41.854Z,39.90
2018-07-14T16:00:37.909Z,37.00
2018-07-14T16:03:06.060Z,37.80
2018-07-14T16:10:29.919Z,36.70
2018-07-14T16:12:57.886Z,46.40
2018-07-14T16:15:26.399Z,37.60
2018-07-14T16:17:54.368Z,46.80
2018-07-14T16:20:22.310Z,37.60
2018-07-14T16:22:50.364Z,37.60
2018-07-14T16:25:18.295Z,45.70
2018-07-14T16:30:14.171Z,37.00
2018-07-14T16:32:42.141Z,37.30
2018-07-14T16:35:10.105Z,36.10
2018-07-14T16:40:05.944Z,36.80
2018-07-14T16:42:33.901Z,45.20
2018-07-14T16:45:01.817Z,36.90
2018-07-14T16:49:57.706Z,38.00
2018-07-14T16:52:25.660Z,36.50
2018-07-14T16:54:53.595Z,37.70
2018-07-14T16:57:21.564Z,38.00
2018-07-14T16:59:49.593Z,38.10
2018-07-14T17:02:17.510Z,38.30
2018-07-14T17:09:41.397Z,38.50
2018-07-14T17:12:09.343Z,38.20
2018-07-14T17:14:37.301Z,34.20
2018-07-14T17:17:05.269Z,33.90
2018-07-14T17:19:33.230Z,45.90
2018-07-14T17:22:01.155Z,36.80
2018-07-14T17:26:57.074Z,38.40
2018-07-14T17:29:24.989Z,38.00
2018-07-14T17:31:52.920Z,39.00
2018-07-14T17:36:48.806Z,38.80
2018-07-14T17:39:16.776Z,38.60
2018-07-14T17:41:44.712Z,39.10
2018-07-14T17:44:12.670Z,39.10
2018-07-14T17:46:40.590Z,39.10
2018-07-14T17:49:08.589Z,39.20
2018-07-14T17:51:36.650Z,48.30
2018-07-14T17:54:04.489Z,39.40
2018-07-14T17:56:32.433Z,39.30
2018-07-14T17:59:00.418Z,39.50
2018-07-14T18:01:28.351Z,40.10
2018-07-14T18:03:56.299Z,49.80
2018-07-14T18:08:52.179Z,40.30
2018-07-14T18:11:20.166Z,41.20
2018-07-14T18:13:48.170Z,42.10
2018-07-14T18:18:44.057Z,44.10
2018-07-14T18:21:12.029Z,44.50
2018-07-14T18:23:39.981Z,55.80
2018-07-14T18:26:07.903Z,56.60
2018-07-14T18:31:03.781Z,46.90
2018-07-14T18:33:31.775Z,47.00
2018-07-14T18:35:59.752Z,47.20
2018-07-14T18:38:27.749Z,47.60
2018-07-14T18:43:23.641Z,57.10
2018-07-14T18:45:51.573Z,48.50
2018-07-14T18:48:19.511Z,49.50
2018-07-14T18:50:47.472Z,49.80
2018-07-14T18:53:15.425Z,50.20
2018-07-14T18:55:43.378Z,50.50
2018-07-14T18:58:11.380Z,51.10
2018-07-14T19:05:35.246Z,52.10
2018-07-14T19:08:03.253Z,52.60
2018-07-14T19:12:59.157Z,53.10
2018-07-14T19:15:27.113Z,53.50
2018-07-14T19:17:55.094Z,53.00
2018-07-14T19:20:23.051Z,53.60
2018-07-14T19:22:51.077Z,53.80
2018-07-14T19:25:19.006Z,54.30
2018-07-14T19:27:46.997Z,54.40
2018-07-14T19:32:42.879Z,55.60
2018-07-14T19:35:10.809Z,55.40
2018-07-14T19:42:34.818Z,55.70
2018-07-14T19:47:30.884Z,55.70
2018-07-14T19:49:58.835Z,55.80
2018-07-14T19:52:26.804Z,56.00
2018-07-14T19:54:54.729Z,56.40
2018-07-14T19:57:22.696Z,56.70
2018-07-14T19:59:50.625Z,56.40
2018-07-14T20:02:18.646Z,56.70
2018-07-14T20:07:14.775Z,57.30
2018-07-14T20:09:42.732Z,57.60
2018-07-14T20:12:10.693Z,57.60
2018-07-14T20:14:38.650Z,58.20
2018-07-14T20:17:06.616Z,69.00
2018-07-14T20:19:34.567Z,58.10
2018-07-14T20:22:02.560Z,58.30
2018-07-14T20:24:30.532Z,58.70
2018-07-14T20:26:58.529Z,70.60
2018-07-14T20:31:54.430Z,59.00
2018-07-14T20:34:22.368Z,59.10
2018-07-14T20:36:50.402Z,59.30
2018-07-14T20:41:46.439Z,59.80
2018-07-14T20:44:14.322Z,70.90
2018-07-14T20:49:10.214Z,60.40
2018-07-14T20:51:38.180Z,60.30
2018-07-14T20:54:06.186Z,72.20
2018-07-14T21:01:30.025Z,61.70
2018-07-14T21:03:57.959Z,61.70
2018-07-14T21:08:53.842Z,61.50
2018-07-14T21:11:21.800Z,61.30
2018-07-14T21:13:49.741Z,61.70
2018-07-14T21:16:17.695Z,62.30
2018-07-14T21:21:13.670Z,62.40
2018-07-14T21:23:41.560Z,62.50
2018-07-14T21:26:09.525Z,62.40
2018-07-14T21:28:37.493Z,62.40
2018-07-14T21:31:05.874Z,62.90
2018-07-14T21:33:33.859Z,63.00
2018-07-14T21:36:01.852Z,63.00
2018-07-14T21:40:57.730Z,63.30
2018-07-14T21:43:25.657Z,62.90
2018-07-14T21:45:53.791Z,63.50
2018-07-14T21:48:21.701Z,63.40
2018-07-14T21:50:49.779Z,63.70
2018-07-14T21:53:17.637Z,63.90
2018-07-14T21:55:45.573Z,63.70
2018-07-14T21:58:13.547Z,63.90
2018-07-14T22:03:27.404Z,63.90
2018-07-14T22:05:55.370Z,64.30
2018-07-14T22:08:23.298Z,64.50
2018-07-14T22:10:51.242Z,64.20
2018-07-14T22:13:19.152Z,64.20
2018-07-14T22:15:47.114Z,64.30
2018-07-14T22:18:15.057Z,64.40
2018-07-14T22:20:43.013Z,76.30
2018-07-14T22:23:11.107Z,64.70
2018-07-14T22:25:39.019Z,64.80
2018-07-14T22:28:06.986Z,76.40
2018-07-14T22:33:02.897Z,65.30
2018-07-14T22:35:30.843Z,65.20
2018-07-14T22:37:58.767Z,65.50
2018-07-14T22:40:26.767Z,65.80
2018-07-14T22:42:54.684Z,65.70
2018-07-14T22:45:22.650Z,65.60
2018-07-14T22:47:50.589Z,65.60
2018-07-14T22:50:18.561Z,66.40
2018-07-14T22:52:46.528Z,65.50
2018-07-14T22:55:14.512Z,65.30
2018-07-14T22:57:42.439Z,77.80
2018-07-14T23:00:10.395Z,77.50
2018-07-14T23:02:38.308Z,66.00
2018-07-14T23:05:06.303Z,66.30
2018-07-14T23:10:02.419Z,66.30
2018-07-14T23:12:30.380Z,65.80
2018-07-14T23:14:58.382Z,65.90
2018-07-14T23:19:54.240Z,67.20
2018-07-14T23:22:22.167Z,66.80
2018-07-14T23:24:50.264Z,66.40
2018-07-14T23:29:46.052Z,67.20
2018-07-14T23:32:13.980Z,67.00
2018-07-14T23:34:44.997Z,66.90
2018-07-14T23:39:40.915Z,66.60
2018-07-14T23:42:10.100Z,66.70
2018-07-14T23:47:05.974Z,66.80
2018-07-14T23:49:34.067Z,67.00
2018-07-14T23:52:02.199Z,67.00
2018-07-14T23:56:58.075Z,67.90
2018-07-14T23:59:26.058Z,67.70
